Saint Louis, Texas
Current Conditions -  °F | °C
As of 4:53 PM on Tuesday 27 Jan 2015 (Local Time) from KTYR Reporting Station
Clear Clear  
Wind Chill: 77°   Ceiling: Unl
Heat Index: 77°   Visibility: 10mi
Dew Point: 36°   Wind: 0mph
Humidity: 23%   Direction: NA
Pressure: 30.1"   Gusts: NA
Location:  32.3248°N, 95.3025°W
Report Text: KTYR 272253Z 00000KT 10SM CLR 25/02 A3010 RMK AO2 SLP189 T02500022
Loading
Personal Weather Stations






























Interactive Weather Map New forecast layout! Learn more

10-Day Weather Forecast

Advertisements
Track Severe Weather on mobile